createdAt,value
2019-06-20T00:00:33.077Z,0.8
2019-06-20T00:01:32.986Z,1.1
2019-06-20T00:02:53.081Z,0.8
2019-06-20T00:03:53.241Z,0.8
2019-06-20T00:04:33.367Z,0.8
2019-06-20T00:05:33.552Z,0.0
2019-06-20T00:06:33.680Z,0.0
2019-06-20T00:07:54.124Z,0.0
2019-06-20T00:08:54.400Z,0.0
2019-06-20T00:09:34.407Z,0.0
2019-06-20T00:10:34.577Z,0.0
2019-06-20T00:11:34.591Z,0.0
2019-06-20T00:13:00.153Z,0.8
2019-06-20T00:14:34.989Z,1.0
2019-06-20T00:15:35.030Z,0.0
2019-06-20T00:16:35.042Z,0.4
2019-06-20T00:18:45.380Z,0.9
2019-06-20T00:19:35.426Z,0.2
2019-06-20T00:20:35.425Z,0.0
2019-06-20T00:21:35.476Z,0.0
2019-06-20T00:24:35.783Z,0.0
2019-06-20T00:25:35.876Z,0.0
2019-06-20T00:26:35.894Z,0.0
2019-06-20T00:30:06.208Z,0.0
2019-06-20T00:31:07.331Z,0.2
2019-06-20T00:32:07.405Z,0.6
2019-06-20T00:34:17.549Z,0.0
2019-06-20T00:35:17.707Z,0.0
2019-06-20T00:36:17.817Z,0.4
2019-06-20T00:37:17.922Z,0.0
2019-06-20T00:38:38.026Z,0.0
2019-06-20T00:39:18.155Z,0.0
2019-06-20T00:40:18.324Z,0.0
2019-06-20T00:41:18.427Z,0.0
2019-06-20T00:42:18.611Z,0.0
2019-06-20T00:43:38.877Z,0.0
2019-06-20T00:44:18.845Z,0.0
2019-06-20T00:45:08.816Z,0.2
2019-06-20T00:46:08.968Z,0.9
2019-06-20T00:47:09.069Z,0.8
2019-06-20T00:49:19.361Z,0.9
2019-06-20T00:50:19.552Z,0.8
2019-06-20T00:51:19.490Z,0.8
2019-06-20T00:52:19.444Z,1.0
2019-06-20T00:54:19.762Z,0.8
2019-06-20T00:55:20.038Z,0.0
2019-06-20T00:57:50.397Z,0.8
2019-06-20T00:58:50.489Z,0.8
2019-06-20T00:59:40.583Z,0.8
2019-06-20T01:00:49.543Z,1.1
2019-06-20T01:01:49.689Z,0.8
2019-06-20T01:02:59.917Z,0.2
2019-06-20T01:04:00.104Z,0.0
2019-06-20T01:05:00.261Z,0.0
2019-06-20T01:07:03.363Z,0.0
2019-06-20T01:08:22.671Z,0.7
2019-06-20T01:09:12.823Z,0.8
2019-06-20T01:10:12.864Z,0.8
2019-06-20T01:11:12.872Z,1.0
2019-06-20T01:12:33.354Z,0.8
2019-06-20T01:13:43.524Z,0.9
2019-06-20T01:14:23.820Z,0.8
2019-06-20T01:15:13.800Z,0.4
2019-06-20T01:16:14.087Z,0.0
2019-06-20T01:17:34.449Z,0.0
2019-06-20T01:18:34.416Z,0.0
2019-06-20T01:19:24.593Z,0.0
2019-06-20T01:20:24.760Z,0.8
2019-06-20T01:21:24.772Z,0.8
2019-06-20T01:22:44.941Z,0.9
2019-06-20T01:23:54.943Z,0.8
2019-06-20T01:24:45.091Z,0.6
2019-06-20T01:25:45.234Z,0.8
2019-06-20T01:26:35.498Z,0.8
2019-06-20T01:27:55.690Z,0.9
2019-06-20T01:28:45.566Z,0.8
2019-06-20T01:29:25.726Z,1.1
2019-06-20T01:30:28.488Z,1.1
2019-06-20T01:31:28.384Z,0.9
2019-06-20T01:32:48.637Z,0.8
2019-06-20T01:33:48.651Z,0.9
2019-06-20T01:37:59.350Z,1.0
2019-06-20T01:38:59.496Z,0.9
2019-06-20T01:39:59.719Z,0.2
2019-06-20T01:40:59.896Z,0.0
2019-06-20T01:42:00.218Z,0.0
2019-06-20T01:43:20.272Z,0.0
2019-06-20T01:44:20.275Z,0.2
2019-06-20T01:45:30.282Z,0.8
2019-06-20T01:46:30.422Z,0.0
2019-06-20T01:47:50.433Z,0.0
2019-06-20T01:48:50.602Z,0.0
2019-06-20T01:53:01.286Z,0.0
2019-06-20T01:53:51.398Z,0.0
2019-06-20T01:54:31.513Z,0.0
2019-06-20T01:55:31.642Z,0.0
2019-06-20T01:56:31.964Z,0.8
2019-06-20T01:57:52.177Z,1.2
2019-06-20T01:58:52.316Z,0.8
2019-06-20T01:59:42.518Z,1.0
2019-06-20T02:00:43.334Z,0.9
2019-06-20T02:01:43.353Z,0.9
2019-06-20T02:03:03.390Z,0.8
2019-06-20T02:04:03.435Z,0.8
2019-06-20T02:04:53.502Z,0.8
2019-06-20T02:05:33.598Z,0.9
2019-06-20T02:06:33.673Z,0.8
2019-06-20T02:07:53.960Z,1.1
2019-06-20T02:08:54.025Z,1.0
2019-06-20T02:09:44.132Z,0.6
2019-06-20T02:10:44.337Z,0.0
2019-06-20T02:11:44.404Z,0.0
2019-06-20T02:13:04.839Z,0.0
2019-06-20T02:14:07.429Z,0.0
2019-06-20T02:14:54.885Z,0.0
2019-06-20T02:15:34.822Z,0.0
2019-06-20T02:16:34.858Z,0.0
2019-06-20T02:17:54.929Z,0.0
2019-06-20T02:18:55.029Z,0.0
2019-06-20T02:19:45.374Z,0.0
2019-06-20T02:20:45.440Z,0.0
2019-06-20T02:21:45.552Z,0.6
2019-06-20T02:23:55.940Z,0.8
2019-06-20T02:24:55.949Z,0.8
2019-06-20T02:25:55.971Z,0.8
2019-06-20T02:28:26.337Z,0.2
2019-06-20T02:29:16.548Z,0.8
2019-06-20T02:30:16.848Z,0.8
2019-06-20T02:33:27.494Z,0.0
2019-06-20T02:35:57.718Z,0.0
2019-06-20T02:36:57.750Z,0.0
2019-06-20T02:38:17.808Z,0.0
2019-06-20T02:41:18.361Z,0.0
2019-06-20T02:44:29.646Z,0.0
2019-06-20T02:45:18.659Z,0.0
2019-06-20T02:46:18.926Z,0.0
2019-06-20T02:49:29.233Z,0.6
2019-06-20T02:50:19.374Z,0.6
2019-06-20T02:51:19.388Z,0.0
2019-06-20T02:54:19.713Z,0.0
2019-06-20T02:55:19.924Z,0.0
2019-06-20T02:56:30.486Z,0.0
2019-06-20T02:57:50.494Z,0.0
2019-06-20T02:58:50.635Z,0.0
2019-06-20T03:07:21.274Z,0.0
2019-06-20T03:08:21.494Z,0.0
2019-06-20T03:09:21.492Z,0.0
2019-06-20T03:10:21.661Z,0.0
2019-06-20T03:11:51.817Z,0.0
2019-06-20T03:12:32.063Z,0.0
2019-06-20T03:13:32.135Z,0.8
2019-06-20T03:14:44.814Z,0.2
2019-06-20T03:15:32.310Z,0.0
2019-06-20T03:17:02.533Z,0.0
2019-06-20T03:17:42.559Z,0.0
2019-06-20T03:18:42.563Z,0.0
2019-06-20T03:19:32.564Z,0.0
2019-06-20T03:20:32.719Z,0.6
2019-06-20T03:22:03.009Z,0.8
2019-06-20T03:22:43.042Z,0.8
2019-06-20T03:23:43.166Z,0.9
2019-06-20T03:24:33.325Z,0.9
2019-06-20T03:25:33.491Z,0.9
2019-06-20T03:27:03.831Z,1.0
2019-06-20T03:27:43.897Z,0.9
2019-06-20T03:28:44.091Z,0.6
2019-06-20T03:29:34.250Z,0.8
2019-06-20T03:30:34.404Z,0.8
2019-06-20T03:32:04.513Z,0.8
2019-06-20T03:32:44.699Z,0.8
2019-06-20T03:33:44.932Z,0.8
2019-06-20T03:34:45.137Z,0.6
2019-06-20T03:35:45.246Z,0.2
2019-06-20T03:37:15.611Z,0.0
2019-06-20T03:38:15.604Z,0.0
2019-06-20T03:39:15.820Z,0.0
2019-06-20T03:40:16.067Z,0.9
2019-06-20T03:41:46.062Z,0.8
2019-06-20T03:42:25.996Z,0.8
2019-06-20T03:43:16.029Z,0.2
2019-06-20T03:44:16.058Z,0.0
2019-06-20T03:45:16.255Z,0.8
2019-06-20T03:46:36.514Z,0.0
2019-06-20T03:47:16.528Z,0.0
2019-06-20T03:48:16.735Z,0.0
2019-06-20T03:49:16.879Z,0.0
2019-06-20T03:50:17.070Z,0.0
2019-06-20T03:51:37.260Z,0.0
2019-06-20T03:52:27.439Z,0.0
2019-06-20T03:53:17.749Z,0.0
2019-06-20T03:54:17.622Z,0.0
2019-06-20T03:55:17.761Z,0.0
2019-06-20T03:56:38.182Z,0.0
2019-06-20T03:57:18.393Z,0.0
2019-06-20T03:58:18.516Z,0.0
2019-06-20T03:59:18.567Z,0.0
2019-06-20T04:00:24.259Z,0.0
2019-06-20T04:01:43.933Z,0.0
2019-06-20T04:02:33.713Z,0.0
2019-06-20T04:03:33.894Z,0.0
2019-06-20T04:04:33.935Z,0.0
2019-06-20T04:05:34.031Z,0.0
2019-06-20T04:06:54.226Z,0.0
2019-06-20T04:07:44.172Z,0.0
2019-06-20T04:08:44.252Z,0.0
2019-06-20T04:09:44.194Z,0.0
2019-06-20T04:10:44.240Z,0.0
2019-06-20T04:12:04.256Z,0.0
2019-06-20T04:12:34.432Z,0.0
2019-06-20T04:13:34.583Z,0.0
2019-06-20T04:14:34.772Z,0.0
2019-06-20T04:15:35.003Z,0.0
2019-06-20T04:16:55.028Z,0.0
2019-06-20T04:17:45.123Z,0.0
2019-06-20T04:19:45.539Z,0.0
2019-06-20T04:20:45.646Z,0.4
2019-06-20T04:22:05.740Z,0.8
2019-06-20T04:22:35.875Z,0.8
2019-06-20T04:23:36.025Z,0.6
2019-06-20T04:24:36.222Z,0.0
2019-06-20T04:25:36.370Z,0.0
2019-06-20T04:26:56.547Z,0.0
2019-06-20T04:32:06.771Z,0.0
2019-06-20T04:32:36.806Z,0.0
2019-06-20T04:33:37.063Z,0.0
2019-06-20T04:34:36.929Z,0.0
2019-06-20T04:35:36.946Z,0.0
2019-06-20T04:37:07.249Z,0.0
2019-06-20T04:47:28.670Z,0.0
2019-06-20T04:52:29.252Z,0.0
2019-06-20T04:53:29.512Z,0.0
2019-06-20T04:57:30.252Z,1.0
2019-06-20T04:58:30.347Z,1.0
2019-06-20T04:59:30.448Z,0.8
2019-06-20T05:00:34.924Z,0.8
2019-06-20T05:02:04.885Z,0.8
2019-06-20T05:02:45.027Z,0.8
2019-06-20T05:03:45.247Z,0.8
2019-06-20T05:04:45.769Z,0.8
2019-06-20T05:07:16.182Z,0.0
2019-06-20T05:08:06.185Z,0.0
2019-06-20T05:11:16.780Z,0.0
2019-06-20T05:17:27.330Z,0.0
2019-06-20T05:18:27.269Z,0.0
2019-06-20T05:19:27.290Z,0.0
2019-06-20T05:20:27.310Z,0.0
2019-06-20T05:21:57.674Z,0.0
2019-06-20T05:28:08.348Z,0.0
2019-06-20T05:29:08.405Z,0.0
2019-06-20T05:30:08.509Z,0.0
2019-06-20T05:32:28.713Z,0.0
2019-06-20T05:33:28.790Z,0.0
2019-06-20T05:34:28.876Z,0.0
2019-06-20T05:35:29.094Z,0.0
2019-06-20T05:37:29.211Z,0.0
2019-06-20T05:38:29.635Z,0.0
2019-06-20T05:39:29.619Z,0.0
2019-06-20T05:40:29.489Z,0.0
2019-06-20T05:42:29.790Z,0.0
2019-06-20T05:43:30.005Z,0.0
2019-06-20T05:44:30.126Z,0.0
2019-06-20T05:45:30.192Z,0.0
2019-06-20T05:47:11.729Z,0.0
2019-06-20T05:47:40.619Z,0.0
2019-06-20T05:48:30.704Z,0.0
2019-06-20T05:49:30.810Z,0.0
2019-06-20T05:50:31.079Z,0.0
2019-06-20T05:52:01.327Z,0.0
2019-06-20T05:52:41.163Z,0.0
2019-06-20T05:53:41.305Z,0.0
2019-06-20T05:54:41.584Z,0.0
2019-06-20T05:55:41.729Z,0.0
2019-06-20T05:57:12.057Z,0.0
2019-06-20T05:58:12.192Z,0.0
2019-06-20T05:59:12.222Z,0.0
2019-06-20T06:00:12.489Z,0.0
2019-06-20T06:02:33.272Z,0.0
2019-06-20T06:03:43.445Z,0.0
2019-06-20T06:04:43.931Z,0.0
2019-06-20T06:05:43.636Z,0.2
2019-06-20T06:07:14.282Z,0.0
2019-06-20T06:08:13.815Z,0.8
2019-06-20T06:09:14.055Z,0.8
2019-06-20T06:10:14.254Z,0.8
2019-06-20T06:11:44.414Z,0.2
2019-06-20T06:12:34.538Z,0.4
2019-06-20T06:13:34.734Z,0.2
2019-06-20T06:14:35.046Z,0.0
2019-06-20T06:15:35.053Z,0.6
2019-06-20T06:17:05.455Z,0.0
2019-06-20T06:17:45.408Z,0.2
2019-06-20T06:18:45.555Z,0.8
2019-06-20T06:19:45.505Z,0.9
2019-06-20T06:21:15.785Z,0.9
2019-06-20T06:22:05.698Z,0.8
2019-06-20T06:22:45.944Z,0.0
2019-06-20T06:23:46.096Z,0.0
2019-06-20T06:24:46.261Z,0.0
2019-06-20T06:26:16.270Z,0.0
2019-06-20T06:27:16.376Z,0.0
2019-06-20T06:28:16.932Z,0.2
2019-06-20T06:29:16.688Z,0.2
2019-06-20T06:30:16.784Z,0.2
2019-06-20T06:32:40.248Z,0.2
2019-06-20T06:33:39.770Z,0.2
2019-06-20T06:34:39.789Z,0.6
2019-06-20T06:35:39.870Z,0.2
2019-06-20T06:37:10.202Z,0.6
2019-06-20T06:38:10.766Z,0.2
2019-06-20T06:39:10.667Z,0.0
2019-06-20T06:40:11.107Z,0.4
2019-06-20T06:41:41.037Z,0.8
2019-06-20T06:42:21.023Z,0.6
2019-06-20T06:43:21.535Z,0.8
2019-06-20T06:44:21.747Z,0.8
2019-06-20T06:45:21.864Z,0.8
2019-06-20T06:46:54.341Z,0.0
2019-06-20T06:48:42.377Z,0.4
2019-06-20T06:49:42.359Z,0.2
2019-06-20T06:50:42.414Z,0.6
2019-06-20T06:52:12.550Z,0.6
2019-06-20T06:53:13.001Z,0.9
2019-06-20T06:54:13.127Z,0.8
2019-06-20T06:55:13.034Z,0.0
2019-06-20T06:56:43.273Z,0.6
2019-06-20T06:57:23.565Z,0.4
2019-06-20T06:58:13.587Z,0.4
2019-06-20T06:59:13.845Z,0.0
2019-06-20T07:00:13.761Z,0.8
2019-06-20T07:01:44.857Z,0.8
2019-06-20T07:02:24.909Z,0.8
2019-06-20T07:03:24.980Z,0.6
2019-06-20T07:04:25.280Z,0.6
2019-06-20T07:05:26.316Z,0.8
2019-06-20T07:06:25.447Z,0.8
2019-06-20T07:07:25.716Z,0.6
2019-06-20T07:08:25.534Z,0.8
2019-06-20T07:09:25.664Z,0.8
2019-06-20T07:10:25.681Z,0.8
2019-06-20T07:11:55.977Z,0.0
2019-06-20T07:17:46.245Z,0.8
2019-06-20T07:22:46.973Z,0.8
2019-06-20T07:23:47.021Z,0.8
2019-06-20T07:24:47.109Z,0.6
2019-06-20T07:26:17.205Z,0.8
2019-06-20T07:27:17.385Z,0.8
2019-06-20T07:28:17.397Z,0.8
2019-06-20T07:29:17.408Z,0.6
2019-06-20T07:30:17.647Z,0.8
2019-06-20T07:31:48.076Z,0.6
2019-06-20T07:32:28.024Z,0.9
2019-06-20T07:33:18.185Z,0.9
2019-06-20T07:34:18.158Z,0.8
2019-06-20T07:35:18.385Z,0.8
2019-06-20T07:36:48.298Z,1.3
2019-06-20T07:37:28.414Z,0.8
2019-06-20T07:38:28.322Z,0.8
2019-06-20T07:39:28.330Z,1.4
2019-06-20T07:40:28.351Z,1.0
2019-06-20T07:41:58.381Z,0.8
2019-06-20T07:48:19.010Z,0.8
2019-06-20T07:49:19.271Z,0.8
2019-06-20T07:50:19.517Z,0.8
2019-06-20T07:51:49.861Z,0.9
2019-06-20T07:52:29.912Z,0.8
2019-06-20T07:53:29.844Z,0.9
2019-06-20T07:54:30.007Z,0.8
2019-06-20T07:55:20.073Z,0.8
2019-06-20T07:56:50.228Z,0.4
2019-06-20T07:57:30.227Z,0.6
2019-06-20T07:58:30.243Z,0.8
2019-06-20T07:59:30.253Z,0.8
2019-06-20T08:00:34.696Z,0.8
2019-06-20T08:02:04.699Z,0.6
2019-06-20T08:02:44.986Z,0.6
2019-06-20T08:03:45.295Z,0.8
2019-06-20T08:04:45.252Z,0.2
2019-06-20T08:06:15.439Z,0.8
2019-06-20T08:07:15.686Z,0.8
2019-06-20T08:08:15.856Z,0.4
2019-06-20T08:09:16.162Z,0.6
2019-06-20T08:10:16.542Z,1.0
2019-06-20T08:11:46.584Z,0.4
2019-06-20T08:12:26.543Z,0.8
2019-06-20T08:13:16.791Z,0.4
2019-06-20T08:14:16.818Z,0.8
2019-06-20T08:15:16.829Z,0.8
2019-06-20T08:16:46.864Z,0.6
2019-06-20T08:17:35.049Z,0.8
2019-06-20T08:18:26.864Z,0.8
2019-06-20T08:19:27.084Z,0.8
2019-06-20T08:20:27.277Z,0.2
2019-06-20T08:21:57.475Z,0.8
2019-06-20T08:22:47.595Z,0.6
2019-06-20T08:23:47.870Z,0.2
2019-06-20T08:24:48.323Z,0.2
2019-06-20T08:26:18.135Z,0.2
2019-06-20T08:27:18.183Z,0.9
2019-06-20T08:28:18.289Z,0.9
2019-06-20T08:29:20.952Z,0.8
2019-06-20T08:30:23.224Z,0.4
2019-06-20T08:31:52.460Z,0.6
2019-06-20T08:32:32.465Z,0.8
2019-06-20T08:33:42.746Z,0.8
2019-06-20T08:35:04.423Z,0.8
2019-06-20T08:36:02.885Z,0.8
2019-06-20T08:36:42.923Z,0.8
2019-06-20T08:37:43.160Z,0.8
2019-06-20T08:38:43.290Z,0.8
2019-06-20T08:40:13.393Z,0.8
2019-06-20T08:41:13.555Z,0.8
2019-06-20T08:42:13.674Z,0.8
2019-06-20T08:43:13.865Z,0.0
2019-06-20T08:44:43.932Z,0.8
2019-06-20T08:45:44.123Z,0.6
2019-06-20T08:46:34.469Z,0.6
2019-06-20T08:47:34.716Z,1.0
2019-06-20T08:48:35.097Z,0.8
2019-06-20T08:50:05.994Z,0.8
2019-06-20T08:51:06.454Z,1.6
2019-06-20T08:51:45.504Z,0.8
2019-06-20T08:52:45.742Z,0.8
2019-06-20T08:53:45.709Z,0.7
2019-06-20T08:55:15.888Z,0.0
2019-06-20T08:56:16.040Z,0.0
2019-06-20T08:57:16.327Z,0.8
2019-06-20T08:58:16.452Z,0.6
2019-06-20T08:59:24.115Z,0.6
2019-06-20T09:00:47.691Z,0.2
2019-06-20T09:01:27.705Z,0.4
2019-06-20T09:02:17.784Z,0.6
2019-06-20T09:03:17.888Z,0.8
2019-06-20T09:04:47.950Z,1.3
2019-06-20T09:05:48.122Z,0.5
2019-06-20T09:06:28.224Z,1.1
2019-06-20T09:07:28.410Z,0.8
2019-06-20T09:08:28.545Z,0.6
2019-06-20T09:09:59.748Z,1.2
2019-06-20T09:10:59.526Z,1.0
2019-06-20T09:11:38.616Z,1.2
2019-06-20T09:12:38.784Z,0.8
2019-06-20T09:13:40.563Z,0.8
2019-06-20T09:15:09.027Z,0.4
2019-06-20T09:16:16.300Z,0.9
2019-06-20T09:17:19.194Z,0.6
2019-06-20T09:18:19.207Z,0.6
2019-06-20T09:19:49.455Z,1.6
2019-06-20T09:20:49.631Z,0.8
2019-06-20T09:21:29.776Z,0.8
2019-06-20T09:22:30.014Z,0.8
2019-06-20T09:23:30.088Z,0.8
2019-06-20T09:25:00.808Z,0.8
2019-06-20T09:26:01.880Z,0.8
2019-06-20T09:26:40.444Z,0.8
2019-06-20T09:27:40.614Z,0.9
2019-06-20T09:28:30.593Z,0.8
2019-06-20T09:30:00.847Z,1.0
2019-06-20T09:31:05.237Z,0.4
2019-06-20T09:31:45.394Z,0.6
2019-06-20T09:32:45.555Z,0.8
2019-06-20T09:33:45.760Z,0.8
2019-06-20T09:35:15.972Z,0.8
2019-06-20T09:36:16.226Z,0.8
2019-06-20T09:37:16.493Z,0.4
2019-06-20T09:38:16.494Z,0.8
2019-06-20T09:40:46.677Z,1.2
2019-06-20T09:41:26.826Z,0.8
2019-06-20T09:42:17.002Z,0.2
2019-06-20T09:43:26.987Z,0.4
2019-06-20T09:44:47.162Z,0.8
2019-06-20T09:45:27.372Z,0.8
2019-06-20T09:46:27.152Z,1.5
2019-06-20T09:47:27.274Z,0.9
2019-06-20T09:48:27.501Z,0.8
2019-06-20T09:49:58.667Z,0.8
2019-06-20T10:00:33.410Z,0.8
2019-06-20T10:01:33.447Z,0.6
2019-06-20T10:02:33.582Z,0.9
2019-06-20T10:03:33.700Z,0.6
2019-06-20T10:05:03.702Z,1.1
2019-06-20T10:15:34.648Z,1.0
2019-06-20T10:16:45.201Z,0.6
2019-06-20T10:17:34.822Z,0.4
2019-06-20T10:18:35.026Z,0.6
2019-06-20T10:20:05.164Z,0.4
2019-06-20T10:20:55.196Z,0.4
2019-06-20T10:21:56.014Z,0.8
2019-06-20T10:22:55.382Z,0.6
2019-06-20T10:23:56.023Z,0.8
2019-06-20T10:25:25.848Z,0.8
2019-06-20T10:26:25.939Z,0.6
2019-06-20T10:27:26.010Z,0.6
2019-06-20T10:28:26.176Z,1.2
2019-06-20T10:30:04.934Z,1.0
2019-06-20T10:39:37.739Z,0.6
2019-06-20T10:44:38.506Z,0.7
2019-06-20T10:45:28.669Z,1.1
2019-06-20T10:46:28.944Z,0.8
2019-06-20T10:50:29.120Z,0.9
2019-06-20T10:51:29.422Z,0.9
2019-06-20T10:52:29.682Z,0.8
2019-06-20T10:55:29.735Z,0.8
2019-06-20T10:56:29.745Z,0.8
2019-06-20T10:57:30.121Z,0.8
2019-06-20T10:58:30.287Z,0.6
2019-06-20T11:00:34.146Z,0.6
2019-06-20T11:01:34.201Z,0.8
2019-06-20T11:02:34.384Z,0.6
2019-06-20T11:04:04.461Z,1.1
2019-06-20T11:05:04.737Z,1.3
2019-06-20T11:05:45.525Z,0.8
2019-06-20T11:06:45.598Z,0.8
2019-06-20T11:07:45.581Z,0.6
2019-06-20T11:09:15.348Z,1.0
2019-06-20T11:10:05.380Z,0.8
2019-06-20T11:10:45.485Z,1.1
2019-06-20T11:11:46.701Z,1.0
2019-06-20T11:12:49.895Z,1.5
2019-06-20T11:14:15.893Z,0.8
2019-06-20T11:15:16.052Z,0.9
2019-06-20T11:16:15.897Z,0.8
2019-06-20T11:17:16.199Z,0.8
2019-06-20T11:18:16.363Z,1.6
2019-06-20T11:19:16.551Z,0.9
2019-06-20T11:20:16.681Z,1.5
2019-06-20T11:21:16.769Z,1.0
2019-06-20T11:22:16.891Z,1.0
2019-06-20T11:23:17.060Z,0.8
2019-06-20T11:24:47.526Z,1.4
2019-06-20T11:25:27.672Z,1.6
2019-06-20T11:26:27.456Z,1.0
2019-06-20T11:27:27.633Z,0.8
2019-06-20T11:28:27.781Z,0.8
2019-06-20T11:29:57.832Z,1.0
2019-06-20T11:30:49.138Z,1.0
2019-06-20T11:35:49.102Z,0.2
2019-06-20T11:36:49.134Z,0.2
2019-06-20T11:37:49.218Z,0.6
2019-06-20T11:39:19.404Z,0.9
2019-06-20T11:40:19.576Z,0.8
2019-06-20T11:41:19.639Z,0.8
2019-06-20T11:42:19.730Z,0.8
2019-06-20T11:43:19.867Z,0.8
2019-06-20T11:44:49.931Z,0.2
2019-06-20T11:50:40.283Z,0.4
2019-06-20T11:51:41.801Z,0.8
2019-06-20T11:52:43.593Z,0.4
2019-06-20T11:54:10.993Z,0.8
2019-06-20T11:55:11.040Z,0.8
2019-06-20T11:55:51.150Z,0.6
2019-06-20T11:56:41.203Z,0.4
2019-06-20T11:57:41.272Z,0.6
2019-06-20T11:59:11.327Z,0.8
2019-06-20T12:00:11.418Z,0.6
2019-06-20T12:01:03.393Z,0.2
2019-06-20T12:01:55.746Z,0.8
2019-06-20T12:02:55.834Z,0.0
2019-06-20T12:04:26.113Z,0.0
2019-06-20T12:05:26.255Z,0.0
2019-06-20T12:06:26.355Z,0.0
2019-06-20T12:07:26.651Z,0.8
2019-06-20T12:08:26.707Z,0.6
2019-06-20T12:10:47.295Z,0.0
2019-06-20T12:11:47.150Z,0.4
2019-06-20T12:12:47.279Z,0.8
2019-06-20T12:14:17.332Z,0.4
2019-06-20T12:15:17.504Z,0.0
2019-06-20T12:21:17.844Z,0.0
2019-06-20T12:29:49.391Z,0.0
2019-06-20T12:30:33.350Z,0.0
2019-06-20T12:31:33.288Z,0.0
2019-06-20T12:32:44.686Z,0.0
2019-06-20T12:34:13.683Z,0.0
2019-06-20T12:35:13.835Z,0.0
2019-06-20T12:35:53.812Z,0.0
2019-06-20T12:36:53.988Z,0.0
2019-06-20T12:37:54.309Z,0.0
2019-06-20T12:39:24.095Z,0.0
2019-06-20T12:40:24.168Z,0.0
2019-06-20T12:41:24.354Z,0.0
2019-06-20T12:42:24.481Z,0.0
2019-06-20T12:43:24.428Z,0.0
2019-06-20T12:44:54.870Z,0.0
2019-06-20T12:45:34.705Z,0.0
2019-06-20T12:46:34.819Z,0.0
2019-06-20T12:47:34.959Z,0.0
2019-06-20T12:49:04.997Z,0.0
2019-06-20T12:50:05.261Z,0.0
2019-06-20T12:50:45.276Z,0.0
2019-06-20T12:51:45.348Z,0.6
2019-06-20T12:52:45.793Z,0.8
2019-06-20T12:54:15.486Z,0.8
2019-06-20T12:55:15.496Z,0.6
2019-06-20T12:55:55.571Z,0.8
2019-06-20T12:56:55.685Z,0.0
2019-06-20T12:57:55.829Z,0.0
2019-06-20T12:59:26.005Z,0.8
2019-06-20T13:00:26.173Z,0.0
2019-06-20T13:01:35.798Z,0.0
2019-06-20T13:02:26.452Z,0.0
2019-06-20T13:03:56.550Z,0.0
2019-06-20T13:05:06.689Z,0.0
2019-06-20T13:05:47.120Z,0.0
2019-06-20T13:06:47.021Z,0.0
2019-06-20T13:07:47.014Z,0.0
2019-06-20T13:09:17.013Z,0.8
2019-06-20T13:10:17.171Z,0.4
2019-06-20T13:10:57.312Z,0.0
2019-06-20T13:11:57.873Z,0.0
2019-06-20T13:12:48.699Z,0.0
2019-06-20T13:14:17.616Z,0.0
2019-06-20T13:14:57.780Z,0.0
2019-06-20T13:15:57.991Z,0.0
2019-06-20T13:16:58.017Z,0.0
2019-06-20T13:17:58.180Z,0.0
2019-06-20T13:19:28.460Z,0.0
2019-06-20T13:20:28.419Z,0.0
2019-06-20T13:21:28.469Z,0.2
2019-06-20T13:22:28.520Z,0.8
2019-06-20T13:23:58.575Z,0.2
2019-06-20T13:24:39.657Z,0.0
2019-06-20T13:29:59.843Z,0.6
2019-06-20T13:32:03.201Z,0.2
2019-06-20T13:32:55.225Z,0.2
2019-06-20T13:34:25.458Z,0.6
2019-06-20T13:35:25.471Z,0.6
2019-06-20T13:36:25.651Z,0.4
2019-06-20T13:37:25.827Z,0.0
2019-06-20T13:38:56.022Z,0.2
2019-06-20T13:39:47.153Z,0.4
2019-06-20T13:40:47.199Z,0.6
2019-06-20T13:41:46.480Z,0.8
2019-06-20T13:42:47.795Z,0.9
2019-06-20T13:44:17.341Z,1.1
2019-06-20T13:44:56.556Z,1.2
2019-06-20T13:45:56.570Z,1.4
2019-06-20T13:46:56.734Z,1.7
2019-06-20T13:47:47.771Z,1.4
2019-06-20T13:49:17.123Z,1.2
2019-06-20T13:50:17.199Z,0.8
2019-06-20T13:50:57.245Z,1.0
2019-06-20T13:51:57.313Z,0.8
2019-06-20T13:52:57.377Z,1.3
2019-06-20T13:54:27.414Z,0.8
2019-06-20T13:55:27.608Z,0.8
2019-06-20T13:56:27.676Z,0.6
2019-06-20T13:57:27.682Z,0.8
2019-06-20T13:58:58.089Z,1.3
2019-06-20T14:04:59.121Z,0.4
2019-06-20T14:05:49.861Z,0.8
2019-06-20T14:06:49.697Z,0.8
2019-06-20T14:07:51.761Z,0.8
2019-06-20T14:09:19.583Z,0.4
2019-06-20T14:09:59.669Z,0.8
2019-06-20T14:10:59.759Z,0.8
2019-06-20T14:12:00.013Z,1.0
2019-06-20T14:13:00.012Z,0.8
2019-06-20T14:14:30.277Z,0.8
2019-06-20T14:24:51.437Z,0.7
2019-06-20T14:29:12.324Z,0.9
2019-06-20T14:29:52.463Z,0.9
2019-06-20T14:30:53.396Z,1.0
2019-06-20T14:31:53.766Z,1.2
2019-06-20T14:32:53.930Z,0.8
2019-06-20T14:34:24.310Z,0.4
2019-06-20T14:35:03.976Z,0.6
2019-06-20T14:35:54.748Z,0.0
2019-06-20T14:36:54.166Z,0.4
2019-06-20T14:37:55.445Z,0.8
2019-06-20T14:39:24.306Z,0.8
2019-06-20T14:40:04.484Z,0.8
2019-06-20T14:41:04.617Z,0.8
2019-06-20T14:42:04.820Z,0.0
2019-06-20T14:43:04.937Z,0.0
2019-06-20T14:44:35.376Z,0.4
2019-06-20T14:45:37.947Z,0.6
2019-06-20T14:46:35.412Z,0.6
2019-06-20T14:47:35.565Z,0.8
2019-06-20T14:49:05.686Z,0.8
2019-06-20T14:49:45.690Z,0.8
2019-06-20T14:50:55.891Z,0.6
2019-06-20T14:52:06.174Z,0.8
2019-06-20T14:53:06.294Z,0.6
2019-06-20T14:54:36.444Z,0.8
2019-06-20T14:55:36.465Z,0.8
2019-06-20T14:56:36.475Z,0.8
2019-06-20T14:57:36.584Z,0.8
2019-06-20T14:59:06.554Z,0.8
2019-06-20T14:59:48.092Z,0.8
2019-06-20T15:00:49.904Z,0.8
2019-06-20T15:01:50.602Z,0.8
2019-06-20T15:02:54.386Z,0.8
2019-06-20T15:05:00.518Z,0.8
2019-06-20T15:06:00.673Z,0.8
2019-06-20T15:07:00.831Z,0.8
2019-06-20T15:08:01.090Z,0.8
2019-06-20T15:09:31.446Z,0.9
2019-06-20T15:14:42.393Z,0.0
2019-06-20T15:15:32.401Z,0.6
2019-06-20T15:16:32.678Z,0.0
2019-06-20T15:17:42.562Z,0.4
2019-06-20T15:19:13.081Z,0.8
2019-06-20T15:19:54.255Z,0.8
2019-06-20T15:20:56.011Z,0.6
2019-06-20T15:21:54.182Z,0.8
2019-06-20T15:22:54.624Z,0.8
2019-06-20T15:24:23.817Z,0.8
2019-06-20T15:25:03.811Z,0.8
2019-06-20T15:25:54.193Z,0.8
2019-06-20T15:26:54.230Z,0.8
2019-06-20T15:27:55.353Z,0.8
2019-06-20T15:29:24.358Z,0.8
2019-06-20T15:30:04.666Z,0.8
2019-06-20T15:31:09.773Z,0.8
2019-06-20T15:32:10.252Z,0.8
2019-06-20T15:33:10.648Z,0.8
2019-06-20T15:34:40.656Z,0.6
2019-06-20T15:35:40.678Z,0.6
2019-06-20T15:36:40.918Z,0.8
2019-06-20T15:37:41.064Z,0.8
2019-06-20T15:39:11.340Z,0.2
2019-06-20T15:39:51.750Z,0.0
2019-06-20T15:40:51.536Z,0.4
2019-06-20T15:41:51.677Z,0.8
2019-06-20T15:42:53.390Z,0.6
2019-06-20T15:45:11.523Z,0.8
2019-06-20T15:46:01.942Z,0.8
2019-06-20T15:47:01.907Z,0.8
2019-06-20T15:48:01.984Z,0.6
2019-06-20T15:49:32.143Z,1.1
2019-06-20T15:50:32.384Z,1.4
2019-06-20T15:51:32.629Z,0.6
2019-06-20T15:52:32.632Z,0.4
2019-06-20T15:54:02.765Z,0.8
2019-06-20T15:54:42.929Z,0.2
2019-06-20T15:59:53.990Z,0.4
2019-06-20T16:00:56.297Z,0.6
2019-06-20T16:02:06.475Z,0.6
2019-06-20T16:03:10.127Z,0.8
2019-06-20T16:04:36.845Z,0.6
2019-06-20T16:05:36.883Z,0.8
2019-06-20T16:06:37.055Z,0.8
2019-06-20T16:07:37.226Z,0.6
2019-06-20T16:09:09.054Z,0.2
2019-06-20T16:19:58.248Z,0.8
2019-06-20T16:20:58.656Z,0.6
2019-06-20T16:21:58.803Z,0.8
2019-06-20T16:22:58.801Z,0.2
2019-06-20T16:24:28.713Z,1.7
2019-06-20T16:25:08.979Z,2.3
2019-06-20T16:25:59.009Z,2.4
2019-06-20T16:26:58.995Z,2.0
2019-06-20T16:27:59.044Z,1.2
2019-06-20T16:29:29.301Z,1.3
2019-06-20T16:30:09.255Z,1.0
2019-06-20T16:31:23.109Z,0.8
2019-06-20T16:32:09.268Z,0.6
2019-06-20T16:33:39.663Z,1.0
2019-06-20T16:34:39.574Z,0.8
2019-06-20T16:35:39.418Z,0.9
2019-06-20T16:36:39.740Z,0.7
2019-06-20T16:37:39.883Z,1.3
2019-06-20T16:39:10.123Z,1.2
2019-06-20T16:45:10.296Z,1.0
2019-06-20T16:46:00.416Z,1.6
2019-06-20T16:47:00.378Z,1.2
2019-06-20T16:48:00.386Z,1.8
2019-06-20T16:49:30.665Z,1.3
2019-06-20T16:50:10.837Z,1.3
2019-06-20T16:51:10.986Z,1.0
2019-06-20T16:52:10.993Z,1.2
2019-06-20T16:53:41.360Z,0.9
2019-06-20T16:54:41.524Z,0.4
2019-06-20T16:55:41.731Z,0.4
2019-06-20T16:56:41.749Z,0.6
2019-06-20T16:57:41.717Z,0.8
2019-06-20T16:59:14.221Z,0.4
2019-06-20T17:00:56.155Z,0.8
2019-06-20T17:02:06.272Z,0.8
2019-06-20T17:03:06.418Z,0.2
2019-06-20T17:04:36.447Z,0.8
2019-06-20T17:05:36.579Z,0.8
2019-06-20T17:06:36.635Z,0.6
2019-06-20T17:07:36.585Z,0.8
2019-06-20T17:09:06.981Z,0.8
2019-06-20T17:09:46.992Z,0.8
2019-06-20T17:10:47.278Z,0.8
2019-06-20T17:11:47.299Z,0.8
2019-06-20T17:12:47.384Z,0.9
2019-06-20T17:14:07.884Z,0.8
2019-06-20T17:14:47.851Z,0.9
2019-06-20T17:15:47.786Z,0.8
2019-06-20T17:16:48.151Z,0.8
2019-06-20T17:17:48.123Z,0.8
2019-06-20T17:19:18.401Z,0.6
2019-06-20T17:19:58.313Z,0.6
2019-06-20T17:20:58.543Z,0.6
2019-06-20T17:21:58.787Z,0.8
2019-06-20T17:22:58.821Z,0.2
2019-06-20T17:24:29.071Z,0.0
2019-06-20T17:25:09.054Z,0.0
2019-06-20T17:26:01.416Z,0.0
2019-06-20T17:26:59.288Z,0.0
2019-06-20T17:27:59.338Z,0.0
2019-06-20T17:29:29.607Z,0.0
2019-06-20T17:30:09.398Z,0.0
2019-06-20T17:31:11.929Z,0.2
2019-06-20T17:32:11.953Z,0.8
2019-06-20T17:33:56.747Z,0.2
2019-06-20T17:34:42.409Z,0.0
2019-06-20T17:35:42.500Z,0.4
2019-06-20T17:36:42.564Z,0.8
2019-06-20T17:37:44.921Z,0.0
2019-06-20T17:39:12.532Z,0.0
2019-06-20T17:39:52.719Z,0.2
2019-06-20T17:40:52.739Z,0.8
2019-06-20T17:41:55.365Z,0.8
2019-06-20T17:42:52.831Z,0.2
2019-06-20T17:44:23.041Z,0.6
2019-06-20T17:45:03.113Z,0.0
2019-06-20T17:46:03.451Z,0.0
2019-06-20T17:47:03.517Z,0.6
2019-06-20T17:48:23.553Z,0.0
2019-06-20T17:49:23.622Z,0.0
2019-06-20T17:50:03.806Z,0.0
2019-06-20T17:51:03.928Z,0.6
2019-06-20T17:52:04.026Z,0.8